Time;durP1;ratioP1;P1;durP2;ratioP2;P2;SDS_P1;SDS_P2;PMS_P1;PMS_P2;Temp;Humidity;BMP_temperature;BMP_pressure;BME280_temperature;BME280_humidity;BME280_pressure;Samples;Min_cycle;Max_cycle;Signal;HPM_P1;HPM_P2
2022/04/11 00:00:46;;;;;;;10.25;2.30;;;;;;;8.93;38.91;101305.41;5011293;28;20072;-73
2022/04/11 00:03:12;;;;;;;10.00;2.45;;;;;;;8.37;40.32;101317.38;5011540;28;20145;-73
2022/04/11 00:05:39;;;;;;;7.47;1.90;;;;;;;8.37;40.40;101314.72;5011236;28;20054;-73
2022/04/11 00:08:06;;;;;;;11.43;2.08;;;;;;;8.61;39.85;101312.59;5010841;28;20077;-72
2022/04/11 00:10:33;;;;;;;12.75;2.42;;;;;;;8.55;39.96;101315.78;5010838;28;20089;-73
2022/04/11 00:13:04;;;;;;;9.73;2.33;;;;;;;8.58;39.97;101312.00;5010650;28;20046;-73
2022/04/11 00:15:34;;;;;;;8.02;1.50;;;;;;;7.94;41.31;101304.97;5010134;28;20062;-73
2022/04/11 00:18:01;;;;;;;7.93;1.52;;;;;;;8.49;40.27;101304.78;5010579;28;20077;-73
2022/04/11 00:20:29;;;;;;;8.32;1.98;;;;;;;8.27;40.69;101311.97;5009804;28;20510;-73
2022/04/11 00:22:55;;;;;;;8.30;1.92;;;;;;;8.46;40.46;101303.19;5010169;28;20125;-73
2022/04/11 00:25:22;;;;;;;8.10;1.80;;;;;;;8.64;40.02;101306.09;5010380;28;20129;-72
2022/04/11 00:27:49;;;;;;;12.52;1.58;;;;;;;8.20;40.89;101307.28;5011061;28;20096;-72
2022/04/11 00:30:16;;;;;;;8.20;1.67;;;;;;;7.89;41.60;101302.69;5010327;28;20061;-72
2022/04/11 00:32:45;;;;;;;11.88;1.67;;;;;;;8.21;41.14;101301.78;5010450;28;20104;-72
2022/04/11 00:35:13;;;;;;;12.30;2.15;;;;;;;8.21;40.88;101304.47;5010920;28;20070;-72
2022/04/11 00:37:40;;;;;;;7.47;1.65;;;;;;;8.09;41.39;101306.34;5010490;28;20050;-72
2022/04/11 00:40:09;;;;;;;11.32;1.85;;;;;;;7.44;42.75;101315.31;5010246;28;20081;-72
2022/04/11 00:42:35;;;;;;;12.95;1.77;;;;;;;7.86;42.28;101304.78;5010262;28;20050;-72
2022/04/11 00:45:03;;;;;;;14.63;2.20;;;;;;;7.90;42.02;101300.84;5009670;28;20133;-72
2022/04/11 00:47:30;;;;;;;6.85;1.63;;;;;;;8.04;42.00;101303.22;5004806;28;20057;-72
2022/04/11 00:50:04;;;;;;;10.68;1.67;;;;;;;8.00;41.89;101307.13;5008164;28;20137;-72
2022/04/11 00:52:33;;;;;;;11.00;2.10;;;;;;;7.67;42.62;101308.06;5010200;28;20070;-72
2022/04/11 00:55:00;;;;;;;12.25;1.73;;;;;;;7.95;41.89;101309.34;5010194;28;20045;-72
2022/04/11 00:57:27;;;;;;;10.25;1.92;;;;;;;7.95;42.14;101312.03;5010406;28;20051;-72
2022/04/11 00:59:54;;;;;;;11.38;2.25;;;;;;;7.79;42.30;101314.25;5008400;28;20077;-72
2022/04/11 01:02:20;;;;;;;10.32;2.10;;;;;;;7.99;41.82;101309.94;5010937;28;20049;-72
2022/04/11 01:04:47;;;;;;;13.00;2.17;;;;;;;7.52;42.94;101307.53;5010583;28;20054;-72
2022/04/11 01:07:24;;;;;;;9.25;2.47;;;;;;;7.80;42.48;101310.59;5015359;28;20118;-72
2022/04/11 01:09:50;;;;;;;13.82;2.10;;;;;;;8.11;41.96;101316.91;5012787;28;20078;-72
2022/04/11 01:12:17;;;;;;;17.63;1.83;;;;;;;7.52;42.61;101322.69;5012373;28;20088;-72
2022/04/11 01:14:44;;;;;;;15.93;2.10;;;;;;;7.96;42.41;101315.53;5013190;28;20078;-72
2022/04/11 01:17:10;;;;;;;10.52;2.13;;;;;;;7.88;42.51;101313.47;5012707;28;20074;-72
2022/04/11 01:19:37;;;;;;;11.98;2.05;;;;;;;8.03;42.18;101314.88;5012539;28;20198;-72
2022/04/11 01:22:04;;;;;;;8.45;1.50;;;;;;;8.04;41.89;101313.91;5012942;28;20469;-72
2022/04/11 01:24:31;;;;;;;8.70;1.83;;;;;;;8.02;42.01;101307.84;5012930;28;20057;-72
2022/04/11 01:26:57;;;;;;;14.55;1.88;;;;;;;7.72;42.60;101307.72;5013552;28;20459;-72
2022/04/11 01:29:24;;;;;;;8.68;1.98;;;;;;;7.90;42.22;101316.88;5013079;28;20390;-72
2022/04/11 01:31:50;;;;;;;6.03;1.70;;;;;;;7.88;42.22;101319.69;5012492;28;20125;-72
2022/04/11 01:34:17;;;;;;;8.88;1.88;;;;;;;7.85;42.09;101319.97;5012751;28;20128;-72
2022/04/11 01:36:43;;;;;;;11.27;1.90;;;;;;;7.87;42.19;101309.97;5013044;28;20140;-72
2022/04/11 01:39:10;;;;;;;7.97;2.20;;;;;;;7.90;41.99;101315.06;5012536;28;20073;-72
2022/04/11 01:41:36;;;;;;;6.95;1.63;;;;;;;7.76;42.25;101314.50;5013702;28;20045;-73
2022/04/11 01:44:03;;;;;;;16.48;2.47;;;;;;;7.72;42.52;101313.91;5013375;28;20133;-72
2022/04/11 01:46:29;;;;;;;7.32;1.83;;;;;;;7.88;42.06;101318.81;5012627;28;20049;-73
2022/04/11 01:48:56;;;;;;;15.40;2.00;;;;;;;7.88;41.65;101324.16;5014027;28;20129;-72
2022/04/11 01:51:22;;;;;;;7.90;1.75;;;;;;;7.87;42.09;101319.81;5013036;28;20042;-73
2022/04/11 01:53:49;;;;;;;4.97;1.65;;;;;;;7.84;41.88;101317.41;5012737;28;20136;-72
2022/04/11 01:56:15;;;;;;;8.40;1.80;;;;;;;7.57;42.77;101324.03;5009350;28;20541;-72
2022/04/11 01:58:42;;;;;;;15.52;2.58;;;;;;;7.80;42.00;101315.94;5011452;28;20073;-73
2022/04/11 02:01:08;;;;;;;10.35;1.80;;;;;;;7.59;42.53;101314.06;5012020;28;20125;-72
2022/04/11 02:03:35;;;;;;;10.82;1.95;;;;;;;7.78;42.09;101316.06;5012037;28;20053;-73
2022/04/11 02:06:02;;;;;;;9.65;2.00;;;;;;;7.75;42.32;101326.16;5011564;28;20068;-73
2022/04/11 02:08:29;;;;;;;12.43;2.58;;;;;;;7.18;43.52;101322.75;5012555;28;20108;-73
2022/04/11 02:10:55;;;;;;;16.27;2.80;;;;;;;7.36;42.92;101320.41;5017160;28;20132;-73
2022/04/11 02:13:22;;;;;;;9.82;2.30;;;;;;;7.46;42.94;101320.53;5032541;28;20052;-74
2022/04/11 02:15:49;;;;;;;13.05;2.47;;;;;;;7.42;42.72;101323.44;5031718;28;20503;-74
2022/04/11 02:18:15;;;;;;;9.23;2.30;;;;;;;7.41;42.86;101319.09;5031760;28;20073;-74
2022/04/11 02:20:42;;;;;;;15.07;1.80;;;;;;;7.21;43.23;101319.84;5024143;28;20494;-74
2022/04/11 02:23:08;;;;;;;7.97;2.17;;;;;;;6.99;43.63;101315.41;5006995;28;20522;-73
2022/04/11 02:25:36;;;;;;;11.38;1.90;;;;;;;7.39;43.11;101312.16;5012053;28;20054;-73
2022/04/11 02:28:02;;;;;;;13.10;2.10;;;;;;;7.29;43.19;101308.53;5012398;28;20074;-73
2022/04/11 02:30:29;;;;;;;10.77;2.65;;;;;;;6.99;43.83;101309.22;5011860;28;20073;-73
2022/04/11 02:32:56;;;;;;;10.30;2.30;;;;;;;7.22;43.25;101312.69;5011953;28;20121;-73
2022/04/11 02:35:23;;;;;;;8.35;1.90;;;;;;;7.33;42.95;101316.19;5014179;28;20096;-73
2022/04/11 02:37:50;;;;;;;13.52;2.38;;;;;;;7.09;43.60;101312.84;5011992;28;20065;-73
2022/04/11 02:40:16;;;;;;;12.38;2.10;;;;;;;7.04;43.98;101310.53;5012158;28;20104;-72
2022/04/11 02:42:45;;;;;;;15.45;2.22;;;;;;;6.93;43.85;101306.06;5011798;28;20054;-73
2022/04/11 02:45:13;;;;;;;8.52;2.40;;;;;;;7.06;43.67;101303.25;5003230;28;20077;-74
2022/04/11 02:47:40;;;;;;;10.27;1.98;;;;;;;7.13;43.35;101301.78;5011183;28;20050;-73
2022/04/11 02:50:07;;;;;;;8.90;1.77;;;;;;;7.16;43.43;101303.38;5012247;28;20219;-73
2022/04/11 02:52:34;;;;;;;7.57;1.90;;;;;;;7.26;43.46;101303.50;5005244;28;20069;-73
2022/04/11 02:55:01;;;;;;;13.45;2.45;;;;;;;7.10;43.74;101302.03;5011614;28;20486;-73
2022/04/11 02:57:29;;;;;;;8.90;1.88;;;;;;;6.97;44.39;101295.97;5010795;28;20457;-73
2022/04/11 02:59:56;;;;;;;13.32;2.10;;;;;;;6.64;44.93;101297.69;5010032;28;20478;-73
2022/04/11 03:02:23;;;;;;;9.52;2.20;;;;;;;6.90;44.20;101300.13;5010129;28;20052;-73
2022/04/11 03:04:50;;;;;;;5.70;1.90;;;;;;;7.30;43.24;101296.91;5010835;28;20514;-72
2022/04/11 03:07:16;;;;;;;8.23;2.03;;;;;;;7.41;43.27;101300.41;5011991;28;20081;-73
2022/04/11 03:09:42;;;;;;;12.73;2.60;;;;;;;7.05;43.84;101298.03;5009916;28;20076;-73
2022/04/11 03:12:09;;;;;;;9.52;1.95;;;;;;;7.39;43.15;101298.81;5004449;28;20483;-73
2022/04/11 03:14:36;;;;;;;11.65;2.40;;;;;;;7.27;43.63;101298.00;5010637;28;20052;-73
2022/04/11 03:17:02;;;;;;;7.88;2.15;;;;;;;7.19;43.72;101298.63;5011795;28;20104;-73
2022/04/11 03:19:29;;;;;;;11.15;2.90;;;;;;;7.33;43.24;101302.84;5010695;28;20050;-73
2022/04/11 03:21:55;;;;;;;10.25;2.40;;;;;;;7.34;43.53;101307.22;5011007;28;20124;-73
2022/04/11 03:24:22;;;;;;;9.80;2.10;;;;;;;7.32;43.49;101310.97;5010262;28;20422;-74
2022/04/11 03:26:48;;;;;;;12.95;2.47;;;;;;;7.36;43.31;101304.41;5011009;28;20109;-74
2022/04/11 03:29:14;;;;;;;8.90;2.35;;;;;;;7.17;43.74;101305.91;5010305;28;20129;-74
2022/04/11 03:31:41;;;;;;;7.03;2.28;;;;;;;7.23;43.28;101301.91;5011085;28;20095;-73
2022/04/11 03:34:08;;;;;;;9.35;2.05;;;;;;;7.21;43.73;101313.66;5010112;28;20109;-73
2022/04/11 03:36:34;;;;;;;8.55;2.30;;;;;;;7.18;43.60;101310.25;5010830;28;20041;-73
2022/04/11 03:39:01;;;;;;;16.70;2.30;;;;;;;6.97;44.26;101314.66;4996104;28;20165;-73
2022/04/11 03:41:27;;;;;;;10.32;2.10;;;;;;;7.13;43.93;101316.97;5011213;28;20054;-73
2022/04/11 03:43:53;;;;;;;8.65;2.42;;;;;;;7.11;43.90;101316.22;5010738;28;20391;-73
2022/04/11 03:46:20;;;;;;;5.68;2.10;;;;;;;7.04;44.10;101317.69;5008244;28;20121;-73
2022/04/11 03:48:47;;;;;;;11.60;2.50;;;;;;;6.78;44.57;101306.44;5010674;28;20077;-73
2022/04/11 03:51:14;;;;;;;9.70;2.17;;;;;;;6.97;44.27;101312.00;5010679;28;20132;-73
2022/04/11 03:53:41;;;;;;;10.70;2.50;;;;;;;6.95;44.12;101314.78;5010683;28;20413;-73
2022/04/11 03:56:07;;;;;;;10.13;2.47;;;;;;;6.94;44.30;101314.91;5010578;28;20473;-73
2022/04/11 03:58:34;;;;;;;11.60;2.28;;;;;;;7.07;44.19;101320.13;5011889;28;20129;-73
2022/04/11 04:01:01;;;;;;;7.55;2.45;;;;;;;7.10;44.05;101320.72;5011131;28;20048;-73
2022/04/11 04:03:28;;;;;;;13.43;2.42;;;;;;;7.11;43.81;101324.22;5010133;28;20050;-73
2022/04/11 04:05:54;;;;;;;11.68;2.53;;;;;;;7.01;44.08;101324.09;5006910;28;20100;-73
2022/04/11 04:08:21;;;;;;;10.13;2.65;;;;;;;7.11;43.81;101321.56;5009919;28;20129;-73
2022/04/11 04:10:48;;;;;;;7.57;2.20;;;;;;;7.12;43.64;101320.59;5009644;28;20521;-73
2022/04/11 04:13:16;;;;;;;8.07;2.72;;;;;;;7.07;43.98;101317.44;5010447;28;20137;-73
2022/04/11 04:15:43;;;;;;;11.05;2.78;;;;;;;7.07;43.71;101320.13;5009477;28;20050;-73
2022/04/11 04:18:11;;;;;;;9.13;2.50;;;;;;;7.00;44.25;101325.09;5010390;28;20069;-73
2022/04/11 04:20:39;;;;;;;14.30;3.08;;;;;;;7.05;44.01;101328.25;5004412;28;20080;-73
2022/04/11 04:23:06;;;;;;;12.20;2.90;;;;;;;6.90;44.03;101324.97;5020249;28;20045;-73
2022/04/11 04:25:34;;;;;;;16.63;2.97;;;;;;;7.12;43.99;101326.78;5010700;28;20057;-73
2022/04/11 04:28:01;;;;;;;12.63;3.20;;;;;;;7.06;44.21;101327.28;5009757;28;20168;-73
2022/04/11 04:30:28;;;;;;;10.70;2.88;;;;;;;6.86;44.71;101325.34;5011681;28;20084;-72
2022/04/11 04:32:57;;;;;;;7.80;2.53;;;;;;;6.98;44.44;101327.03;5010388;28;20140;-72
2022/04/11 04:35:24;;;;;;;7.40;2.75;;;;;;;6.91;44.29;101329.34;5011524;28;20060;-71
2022/04/11 04:37:50;;;;;;;12.70;2.90;;;;;;;6.90;44.42;101332.97;5011066;28;20129;-71
2022/04/11 04:40:17;;;;;;;11.65;2.88;;;;;;;7.01;44.38;101323.25;5010250;28;20398;-72
2022/04/11 04:42:44;;;;;;;12.75;3.03;;;;;;;6.85;44.65;101328.97;5013085;28;20148;-72
2022/04/11 04:45:12;;;;;;;13.55;3.45;;;;;;;6.74;44.91;101323.63;5014161;28;20505;-71
2022/04/11 04:47:39;;;;;;;10.35;3.10;;;;;;;6.74;44.97;101323.63;5012325;28;20100;-72
2022/04/11 04:50:06;;;;;;;10.80;3.08;;;;;;;6.39;45.95;101332.53;5015655;28;20435;-72
2022/04/11 04:52:33;;;;;;;7.25;2.85;;;;;;;6.48;45.68;101332.69;5014057;28;20054;-71
2022/04/11 04:54:59;;;;;;;10.68;4.10;;;;;;;6.79;44.76;101332.97;5013216;28;20124;-71
2022/04/11 04:57:25;;;;;;;17.48;3.80;;;;;;;6.49;45.57;101328.19;5012583;28;20058;-72
2022/04/11 04:59:52;;;;;;;10.02;3.78;;;;;;;6.71;45.11;101330.91;5014760;28;20072;-72
2022/04/11 05:02:19;;;;;;;8.02;3.35;;;;;;;6.11;46.91;101336.44;5014079;28;20394;-72
2022/04/11 05:04:46;;;;;;;15.52;3.58;;;;;;;6.44;45.67;101335.72;5015128;28;20050;-72
2022/04/11 05:07:12;;;;;;;14.57;3.85;;;;;;;6.30;45.96;101339.44;5014322;28;20512;-72
2022/04/11 05:09:39;;;;;;;16.88;4.53;;;;;;;6.52;45.69;101338.63;5013646;28;20084;-71
2022/04/11 05:12:06;;;;;;;12.27;3.42;;;;;;;6.89;44.68;101347.28;5014640;28;20057;-71
2022/04/11 05:14:32;;;;;;;13.45;4.05;;;;;;;7.28;44.13;101341.56;5014179;28;20054;-72
2022/04/11 05:16:59;;;;;;;11.60;3.63;;;;;;;7.21;43.97;101341.19;5011634;28;20073;-71
2022/04/11 05:19:25;;;;;;;13.02;3.92;;;;;;;7.37;43.80;101347.00;5013154;28;20050;-71
2022/04/11 05:21:52;;;;;;;18.75;5.03;;;;;;;7.33;43.73;101352.72;5014067;28;20140;-71
2022/04/11 05:24:18;;;;;;;11.80;4.30;;;;;;;7.71;43.17;101351.41;5012912;28;20037;-71
2022/04/11 05:26:45;;;;;;;15.88;4.88;;;;;;;7.41;43.49;101356.47;5012862;28;20101;-70
2022/04/11 05:29:11;;;;;;;16.13;6.05;;;;;;;7.48;43.23;101356.81;5013311;28;20049;-71
2022/04/11 05:31:38;;;;;;;15.18;4.72;;;;;;;7.80;42.67;101370.19;5013722;28;20425;-71
2022/04/11 05:34:05;;;;;;;12.20;4.47;;;;;;;8.16;42.09;101364.63;5013703;28;20470;-71
2022/04/11 05:36:32;;;;;;;13.05;4.18;;;;;;;8.52;41.07;101374.03;5011075;28;20054;-71
2022/04/11 05:38:58;;;;;;;10.02;3.53;;;;;;;8.25;41.47;101367.38;5013119;28;20046;-71
2022/04/11 05:41:26;;;;;;;15.05;4.55;;;;;;;8.57;41.02;101375.34;5012862;28;20057;-72
2022/04/11 05:43:52;;;;;;;12.10;3.75;;;;;;;8.86;40.69;101366.63;5012580;28;20050;-71
2022/04/11 05:46:18;;;;;;;14.32;5.53;;;;;;;8.73;40.35;101366.00;5012704;28;20053;-71
2022/04/11 05:48:45;;;;;;;17.63;3.92;;;;;;;8.22;41.37;101362.28;5013077;28;20054;-71
2022/04/11 05:51:12;;;;;;;13.85;3.80;;;;;;;8.81;40.36;101366.16;5010452;28;20129;-71
2022/04/11 05:53:38;;;;;;;18.90;4.93;;;;;;;9.17;39.75;101371.97;5013362;28;20104;-71
2022/04/11 05:56:05;;;;;;;13.05;3.65;;;;;;;9.12;39.70;101366.16;5012659;28;20401;-71
2022/04/11 05:58:31;;;;;;;10.82;3.35;;;;;;;9.56;38.83;101365.78;5012242;28;20143;-72
2022/04/11 06:00:58;;;;;;;15.15;4.03;;;;;;;9.32;39.01;101365.28;5013438;28;20132;-70
2022/04/11 06:03:24;;;;;;;9.75;3.35;;;;;;;9.18;38.95;101368.31;5008372;28;20066;-72
2022/04/11 06:05:51;;;;;;;11.93;3.05;;;;;;;9.28;39.22;101363.88;5012525;28;20484;-71
2022/04/11 06:08:18;;;;;;;9.18;3.22;;;;;;;9.77;38.02;101371.03;5013394;28;20128;-72
2022/04/11 06:10:44;;;;;;;10.15;3.00;;;;;;;9.39;38.47;101368.28;5015156;28;20068;-72
2022/04/11 06:13:11;;;;;;;10.07;3.42;;;;;;;9.87;37.51;101376.41;5012113;28;20465;-73
2022/04/11 06:15:37;;;;;;;14.43;3.35;;;;;;;9.74;37.40;101375.81;5013310;28;20054;-72
2022/04/11 06:18:04;;;;;;;12.98;4.00;;;;;;;9.26;38.39;101373.88;5012281;28;20046;-72
2022/04/11 06:20:31;;;;;;;8.43;2.65;;;;;;;9.97;36.96;101371.91;5011957;28;20113;-72
2022/04/11 06:22:58;;;;;;;11.02;3.22;;;;;;;10.84;35.43;101373.66;5012248;28;20046;-72
2022/04/11 06:25:24;;;;;;;9.15;2.85;;;;;;;11.39;34.29;101380.91;5012902;28;20054;-72
2022/04/11 06:27:51;;;;;;;8.23;2.22;;;;;;;10.70;35.22;101374.97;5012059;28;20092;-72
2022/04/11 06:30:17;;;;;;;10.93;2.65;;;;;;;11.30;33.99;101381.81;5012590;28;20100;-73
2022/04/11 06:32:44;;;;;;;10.77;2.95;;;;;;;11.77;33.19;101387.94;5011841;28;20058;-73
2022/04/11 06:35:10;;;;;;;7.43;2.38;;;;;;;10.84;34.90;101383.53;5011600;28;20129;-73
2022/04/11 06:37:37;;;;;;;9.20;2.50;;;;;;;11.58;33.55;101379.94;5006865;28;20106;-73
2022/04/11 06:40:04;;;;;;;8.13;2.40;;;;;;;11.79;32.64;101387.78;5012556;28;20117;-73
2022/04/11 06:42:31;;;;;;;6.88;2.17;;;;;;;12.19;32.05;101384.66;5012318;28;20074;-73
2022/04/11 06:44:57;;;;;;;8.40;2.55;;;;;;;12.79;31.10;101387.47;5012352;28;20129;-73
2022/04/11 06:47:24;;;;;;;6.15;2.33;;;;;;;13.67;29.47;101383.69;5011938;28;20470;-73
2022/04/11 06:49:51;;;;;;;7.07;2.20;;;;;;;14.24;28.60;101390.03;5011830;28;20050;-73
2022/04/11 06:52:17;;;;;;;13.82;3.08;;;;;;;13.93;29.10;101392.53;5011361;28;20050;-72
2022/04/11 06:54:45;;;;;;;8.50;2.53;;;;;;;14.01;28.29;101387.16;5011790;28;20457;-73
2022/04/11 06:57:12;;;;;;;6.93;2.10;;;;;;;13.28;29.07;101392.28;5012983;28;20192;-76
2022/04/11 06:59:38;;;;;;;6.88;1.95;;;;;;;13.63;28.23;101388.56;5013988;28;20046;-76
2022/04/11 07:02:07;;;;;;;9.90;2.78;;;;;;;14.18;27.69;101379.06;5013429;28;20046;-76
2022/04/11 07:04:34;;;;;;;7.47;3.00;;;;;;;14.25;27.17;101386.34;5011166;28;20550;-76
2022/04/11 07:07:00;;;;;;;9.52;2.78;;;;;;;13.67;27.42;101387.22;5015576;28;20080;-76
2022/04/11 07:09:34;;;;;;;7.65;2.55;;;;;;;14.54;26.64;101390.38;5012309;28;20482;-77
2022/04/11 07:12:00;;;;;;;9.27;2.47;;;;;;;14.99;26.12;101394.38;5012712;28;20072;-75
2022/04/11 07:14:29;;;;;;;6.40;2.20;;;;;;;15.64;24.98;101382.47;5013047;28;20077;-74
2022/04/11 07:16:55;;;;;;;4.65;1.70;;;;;;;15.75;24.46;101384.78;5012970;28;20096;-74
2022/04/11 07:19:22;;;;;;;7.82;2.10;;;;;;;15.22;24.90;101398.03;5009909;28;20490;-74
2022/04/11 07:21:49;;;;;;;8.43;2.65;;;;;;;15.83;24.12;101397.41;5012264;28;20049;-73
2022/04/11 07:24:15;;;;;;;6.43;2.08;;;;;;;15.75;23.87;101389.38;5012245;28;20466;-74
2022/04/11 07:26:42;;;;;;;7.57;2.15;;;;;;;16.52;23.35;101386.59;5010484;28;20053;-74
2022/04/11 07:29:09;;;;;;;5.22;1.60;;;;;;;15.92;22.73;101390.94;5012065;28;20125;-74
2022/04/11 07:31:36;;;;;;;6.95;1.60;;;;;;;16.36;22.44;101393.81;5011325;28;20482;-74
2022/04/11 07:34:02;;;;;;;5.38;1.60;;;;;;;16.43;21.73;101394.75;5011024;28;20128;-72
2022/04/11 07:36:29;;;;;;;7.90;1.38;;;;;;;17.12;21.23;101396.47;5011675;28;20451;-74
2022/04/11 07:38:57;;;;;;;5.05;1.50;;;;;;;17.18;21.27;101390.31;5003112;28;20133;-77
2022/04/11 07:41:24;;;;;;;3.22;1.40;;;;;;;17.19;21.10;101399.28;5011423;28;20077;-74
2022/04/11 07:43:51;;;;;;;5.63;2.33;;;;;;;16.71;21.16;101396.91;5012115;28;20053;-74
2022/04/11 07:46:17;;;;;;;4.15;1.70;;;;;;;17.20;20.63;101384.69;5012154;28;20467;-74
2022/04/11 07:48:44;;;;;;;5.95;1.40;;;;;;;17.90;19.58;101389.56;5012744;28;20402;-74
2022/04/11 07:51:11;;;;;;;5.30;1.60;;;;;;;18.35;19.18;101387.53;5010741;28;20049;-74
2022/04/11 07:53:37;;;;;;;5.10;1.40;;;;;;;18.21;19.22;101391.16;5009905;28;20104;-74
2022/04/11 07:56:04;;;;;;;2.97;1.35;;;;;;;18.65;18.52;101384.59;5010997;28;20046;-74
2022/04/11 07:58:31;;;;;;;12.68;4.38;;;;;;;18.51;18.63;101384.53;5011243;28;20065;-74
2022/04/11 08:00:57;;;;;;;6.65;1.70;;;;;;;19.12;17.78;101383.91;5001301;28;20069;-74
2022/04/11 08:03:24;;;;;;;24.90;1.75;;;;;;;18.97;18.17;101383.22;5008880;28;20545;-74
2022/04/11 08:05:51;;;;;;;3.45;1.30;;;;;;;19.36;17.73;101388.00;5010889;28;20112;-74
2022/04/11 08:08:17;;;;;;;5.35;2.00;;;;;;;17.38;19.85;101393.31;5011118;28;20069;-75
2022/04/11 08:10:43;;;;;;;4.00;1.83;;;;;;;18.20;18.54;101381.31;5007163;28;20489;-74
2022/04/11 08:13:10;;;;;;;6.88;1.48;;;;;;;18.03;18.59;101389.69;5017088;28;20133;-74
2022/04/11 08:15:37;;;;;;;3.90;1.27;;;;;;;17.99;18.61;101391.09;5012330;28;20489;-74
2022/04/11 08:18:04;;;;;;;7.97;2.45;;;;;;;17.85;18.84;101384.69;5013148;28;20408;-74
2022/04/11 08:20:30;;;;;;;3.83;1.35;;;;;;;18.65;17.87;101395.47;5014432;28;20406;-74
2022/04/11 08:22:57;;;;;;;3.25;1.30;;;;;;;18.25;18.07;101395.16;5015839;28;20046;-73
2022/04/11 08:25:24;;;;;;;3.47;1.42;;;;;;;18.33;18.00;101392.28;5013838;28;20465;-74
2022/04/11 08:27:51;;;;;;;5.25;1.45;;;;;;;18.50;17.99;101393.69;5015570;28;20068;-75
2022/04/11 08:30:17;;;;;;;4.40;1.48;;;;;;;17.49;18.63;101392.84;5016606;28;20070;-75
2022/04/11 08:32:46;;;;;;;5.43;1.55;;;;;;;18.58;18.03;101395.44;5014981;28;20069;-75
2022/04/11 08:35:14;;;;;;;5.05;1.20;;;;;;;18.50;18.09;101393.69;5015085;28;20073;-74
2022/04/11 08:37:41;;;;;;;6.18;1.70;;;;;;;19.10;17.54;101393.31;5006519;28;20042;-74
2022/04/11 08:40:10;;;;;;;3.85;1.38;;;;;;;19.92;16.87;101385.09;5015789;28;20046;-73
2022/04/11 08:42:42;;;;;;;6.43;2.20;;;;;;;19.24;17.40;101386.88;5014058;28;20046;-73
2022/04/11 08:45:13;;;;;;;3.75;1.13;;;;;;;20.16;16.83;101393.72;5008033;28;20043;-74
2022/04/11 08:47:41;;;;;;;5.80;1.80;;;;;;;20.27;16.04;101395.81;5013380;28;20046;-73
2022/04/11 08:50:10;;;;;;;3.70;1.40;;;;;;;19.38;16.77;101391.38;5015279;28;20104;-73
2022/04/11 08:52:36;;;;;;;3.72;1.20;;;;;;;19.95;15.95;101390.13;5013521;28;20053;-74
2022/04/11 08:55:03;;;;;;;6.95;1.13;;;;;;;20.13;15.90;101385.97;5014193;28;20069;-74
2022/04/11 08:57:31;;;;;;;4.05;1.15;;;;;;;20.04;15.68;101384.47;5005736;28;20049;-74
2022/04/11 09:00:06;;;;;;;4.40;1.50;;;;;;;20.00;15.19;101391.38;5026513;28;20050;-74
2022/04/11 09:02:34;;;;;;;3.10;1.10;;;;;;;20.30;15.47;101379.06;5012301;28;20461;-76
2022/04/11 09:05:02;;;;;;;4.32;1.25;;;;;;;20.09;15.27;101384.69;5014297;28;20096;-76
2022/04/11 09:07:47;;;;;;;3.22;1.05;;;;;;;20.65;15.14;101376.16;5015267;28;20053;-76
2022/04/11 09:10:21;;;;;;;7.03;1.02;;;;;;;20.54;15.25;101372.16;5007315;28;20045;-74
2022/04/11 09:12:50;;;;;;;1.48;0.80;;;;;;;21.06;14.49;101372.28;5014508;28;20100;-74
2022/04/11 09:15:19;;;;;;;3.40;0.95;;;;;;;21.18;14.83;101376.06;5013652;28;20065;-75
2022/04/11 09:17:47;;;;;;;3.17;0.93;;;;;;;18.91;16.16;101364.94;5015433;28;20069;-74
2022/04/11 09:20:18;;;;;;;3.53;1.55;;;;;;;19.61;16.15;101374.69;5015031;28;20133;-75
2022/04/11 09:22:45;;;;;;;;;;;;;;;19.33;16.20;101372.09;5016435;28;20124;-75
2022/04/11 09:25:13;;;;;;;;;;;;;;;20.25;15.30;101367.09;5015032;28;19921;-75
2022/04/11 09:27:40;;;;;;;;;;;;;;;17.88;16.64;101356.31;5011908;28;20019;-75
2022/04/11 09:30:19;;;;;;;;;;;;;;;19.44;15.75;101368.78;5013631;28;19921;-75
2022/04/11 09:32:53;;;;;;;;;;;;;;;20.66;14.57;101366.91;5013012;28;19976;-75
2022/04/11 09:35:20;;;;;;;;;;;;;;;20.38;14.66;101358.94;5011981;28;19975;-72
2022/04/11 09:37:47;;;;;;;;;;;;;;;17.81;16.46;101364.41;5013136;28;20035;-72
2022/04/11 09:40:20;;;;;;;;;;;;;;;19.38;15.84;101358.72;5006053;28;20332;-73
2022/04/11 09:42:55;;;;;;;;;;;;;;;18.66;15.19;101359.97;5012952;28;20004;-74
2022/04/11 09:45:22;;;;;;;;;;;;;;;18.40;16.27;101355.16;5011718;28;19949;-73
2022/04/11 09:48:00;;;;;;;;;;;;;;;19.28;15.77;101355.56;5014391;28;19922;-73
2022/04/11 09:50:30;;;;;;;;;;;;;;;19.40;15.48;101356.63;5010113;28;20032;-73
2022/04/11 09:53:26;;;;;;;;;;;;;;;20.27;14.91;101356.84;5011690;28;20051;-74
2022/04/11 09:55:53;;;;;;;;;;;;;;;20.30;15.04;101356.44;5002289;28;20293;-74
2022/04/11 09:58:21;;;;;;;;;;;;;;;20.01;15.19;101360.41;5014287;28;19972;-76
2022/04/11 10:00:48;;;;;;;;;;;;;;;21.75;14.22;101349.75;5013090;28;19925;-75
2022/04/11 10:03:15;;;;;;;;;;;;;;;22.01;14.01;101347.94;5013394;28;19997;-75
2022/04/11 10:05:41;;;;;;;;;;;;;;;20.19;15.16;101360.63;5011779;28;19921;-74
2022/04/11 10:08:09;;;;;;;;;;;;;;;20.53;15.30;101362.31;5012016;28;19957;-76
2022/04/11 10:10:38;;;;;;;;;;;;;;;20.96;14.01;101347.34;5012614;28;19957;-75
2022/04/11 10:13:11;;;;;;;;;;;;;;;21.34;13.78;101345.56;5013113;28;19960;-74
2022/04/11 10:15:39;;;;;;;;;;;;;;;19.70;15.35;101337.28;5012431;28;19921;-74
2022/04/11 10:18:07;;;;;;;;;;;;;;;20.07;15.01;101343.19;5012927;28;19960;-75
2022/04/11 10:20:35;;;;;;;;;;;;;;;20.10;15.01;101342.78;5012757;28;20009;-74
2022/04/11 10:23:07;;;;;;;;;;;;;;;18.53;15.91;101338.13;5012989;28;20015;-74
2022/04/11 10:25:37;;;;;;;;;;;;;;;19.73;14.68;101336.88;5013814;28;19921;-75
2022/04/11 10:28:36;;;;;;;;;;;;;;;20.56;14.51;101333.78;5014976;28;19921;-75
2022/04/11 10:31:10;;;;;;;;;;;;;;;19.53;15.63;101338.69;4993248;28;19928;-73
2022/04/11 10:33:47;;;;;;;;;;;;;;;19.45;15.95;101324.22;5014120;28;19925;-74
2022/04/11 10:36:28;;;;;;;;;;;;;;;17.99;17.11;101334.09;5009506;28;19956;-75
2022/04/11 10:39:12;;;;;;;;;;;;;;;18.81;16.69;101329.94;5014636;28;20358;-73
2022/04/11 10:41:54;;;;;;;;;;;;;;;19.16;16.13;101328.06;5015357;28;19925;-74
2022/04/11 10:44:35;;;;;;;;;;;;;;;17.23;18.02;101328.22;5006614;28;19975;-75
2022/04/11 10:47:07;;;;;;;;;;;;;;;18.54;17.33;101321.63;5014641;28;19922;-74
2022/04/11 10:49:48;;;;;;;;;;;;;;;18.46;17.87;101326.38;5012860;28;20354;-74
2022/04/11 10:52:28;;;;;;;;;;;;;;;17.26;18.51;101329.72;5013293;28;20281;-75
2022/04/11 10:54:57;;;;;;;;;;;;;;;17.92;17.93;101325.03;5014011;28;19957;-74
2022/04/11 10:57:34;;;;;;;;;;;;;;;17.23;19.12;101324.66;5013455;28;20376;-75
2022/04/11 11:00:04;;;;;;;;;;;;;;;17.10;19.22;101325.34;5013965;28;19960;-74
2022/04/11 11:05:29;;;;;;;;;;;;;;;17.45;18.68;101329.16;5013377;28;20389;-75
2022/04/11 11:10:49;;;;;;;;;;;;;;;17.98;18.38;101321.56;5079386;22;20024;-77
2022/04/11 11:13:30;;;;;;;;;;;;;;;17.45;18.85;101322.88;5007280;28;20388;-77
2022/04/11 11:15:58;;;;;;;;;;;;;;;17.03;18.87;101325.25;4994477;28;19922;-77
2022/04/11 11:18:25;;;;;;;;;;;;;;;16.63;19.39;101330.09;5018607;28;19955;-77
2022/04/11 11:20:56;;;;;;;;;;;;;;;16.20;19.92;101320.88;5005763;28;19996;-77
2022/04/11 11:23:31;;;;;;;;;;;;;;;16.76;19.54;101306.97;4993124;28;20267;-77
2022/04/11 11:26:11;;;;;;;;;;;;;;;17.37;18.86;101302.13;4994155;28;19922;-77
2022/04/11 11:28:41;;;;;;;;;;;;;;;16.81;19.53;101299.09;4997194;28;19971;-77
2022/04/11 11:31:12;;;;;;;;;;;;;;;16.56;19.91;101299.38;5008823;28;19930;-78
2022/04/11 11:33:47;;;;;;;;;;;;;;;16.79;19.68;101293.03;4990692;28;19937;-78
2022/04/11 11:36:15;;;;;;;;;;;;;;;17.66;19.49;101305.78;5010350;28;19921;-79
2022/04/11 11:38:41;;;;;;;;;;;;;;;19.90;17.21;101302.78;5013303;28;19929;-78
2022/04/11 11:41:08;;;;;;;;;;;;;;;19.94;17.03;101292.31;5007585;28;20007;-78
2022/04/11 11:43:36;;;;;;;;;;;;;;;19.09;17.26;101291.00;5001093;28;20289;-78
2022/04/11 11:46:06;;;;;;;;;;;;;;;17.27;18.92;101293.44;5003752;28;19921;-78
2022/04/11 11:48:35;;;;;;;;;;;;;;;17.52;18.62;101286.66;5000174;28;19922;-78